Time;durP1;ratioP1;P1;durP2;ratioP2;P2;SDS_P1;SDS_P2;PMS_P1;PMS_P2;Temp;Humidity;BMP_temperature;BMP_pressure;BME280_temperature;BME280_humidity;BME280_pressure;Samples;Min_cycle;Max_cycle;Signal;HPM_P1;HPM_P2
2024/01/21 00:01:35;;;;;;;4.10;3.70;;;;;;;22.19;29.03;96035.41;6155120;28;111156;-58
2024/01/21 00:04:46;;;;;;;3.80;3.40;;;;;;;22.19;28.77;96035.41;6159196;28;109825;-58
2024/01/21 00:07:55;;;;;;;4.13;3.30;;;;;;;22.19;29.06;96040.75;6161610;28;109062;-59
2024/01/21 00:11:07;;;;;;;4.20;3.50;;;;;;;22.17;28.55;96042.88;6174567;28;109188;-60
2024/01/21 00:14:14;;;;;;;3.83;3.13;;;;;;;22.19;28.55;96043.41;6166615;28;110447;-60
2024/01/21 00:17:22;;;;;;;4.60;3.13;;;;;;;22.19;28.61;96046.06;6157015;28;109152;-60
2024/01/21 00:20:32;;;;;;;3.67;3.37;;;;;;;22.18;28.87;96052.44;6159473;28;110242;-60
2024/01/21 00:23:44;;;;;;;5.70;3.07;;;;;;;22.18;28.23;96044.44;6148524;28;110848;-60
2024/01/21 00:26:53;;;;;;;4.17;2.73;;;;;;;22.16;28.68;96047.41;6159186;28;109098;-60
2024/01/21 00:30:06;;;;;;;3.47;2.90;;;;;;;22.17;28.68;96048.19;6159696;28;109167;-60
2024/01/21 00:33:16;;;;;;;3.27;2.87;;;;;;;22.15;28.48;96051.16;6154640;28;109080;-60
2024/01/21 00:36:24;;;;;;;3.40;2.80;;;;;;;22.16;28.51;96058.06;6154506;28;110112;-60
2024/01/21 00:39:36;;;;;;;3.60;2.40;;;;;;;22.15;28.25;96053.03;6159665;28;109088;-60
2024/01/21 00:42:43;;;;;;;3.27;2.83;;;;;;;22.16;28.28;96059.94;6159804;28;109160;-60
2024/01/21 00:45:53;;;;;;;3.73;3.13;;;;;;;22.15;28.13;96058.34;6149008;28;109457;-61
2024/01/21 00:49:05;;;;;;;4.10;3.10;;;;;;;22.14;28.12;96057.56;6164977;28;109474;-60
2024/01/21 00:52:11;;;;;;;3.53;2.83;;;;;;;22.15;28.41;96061.81;6159405;28;109120;-60
2024/01/21 00:55:16;;;;;;;2.97;2.50;;;;;;;22.15;27.80;96066.34;6158791;28;109315;-60
2024/01/21 00:58:31;;;;;;;4.50;3.27;;;;;;;22.15;27.85;96061.03;6148078;28;110138;-60
2024/01/21 01:01:43;;;;;;;3.50;2.80;;;;;;;22.16;27.85;96062.59;6159409;28;110108;-60
2024/01/21 01:04:49;;;;;;;4.63;2.93;;;;;;;22.15;28.21;96061.81;6158263;28;109253;-61
2024/01/21 01:07:54;;;;;;;3.70;3.00;;;;;;;22.15;27.87;96063.69;6149494;28;108909;-60
2024/01/21 01:11:00;;;;;;;3.10;2.80;;;;;;;22.14;28.30;96067.44;6158308;28;109278;-60
2024/01/21 01:14:12;;;;;;;3.53;3.13;;;;;;;22.16;28.00;96065.28;6145083;28;110181;-60
2024/01/21 01:17:24;;;;;;;4.00;3.00;;;;;;;22.14;28.02;96057.56;6158872;28;109254;-60
2024/01/21 01:20:29;;;;;;;3.77;3.37;;;;;;;22.14;28.36;96065.56;6148171;28;109346;-60
2024/01/21 01:23:38;;;;;;;3.37;3.07;;;;;;;22.13;28.13;96063.16;6158759;28;109425;-60
2024/01/21 01:26:47;;;;;;;3.43;3.13;;;;;;;22.14;28.09;96068.22;6157154;28;109088;-60
2024/01/21 01:29:58;;;;;;;3.40;3.10;;;;;;;22.14;28.26;96073.56;6163936;28;109318;-60
2024/01/21 01:33:09;;;;;;;4.37;3.47;;;;;;;22.14;27.87;96075.41;6153312;28;109401;-60
2024/01/21 01:36:19;;;;;;;3.50;3.10;;;;;;;22.13;27.71;96068.50;6156723;28;109066;-60
2024/01/21 01:39:31;;;;;;;3.63;3.23;;;;;;;22.15;28.16;96071.69;6157488;28;109347;-60
2024/01/21 01:42:41;;;;;;;4.13;3.30;;;;;;;22.15;27.78;96069.00;6147279;28;109070;-60
2024/01/21 01:45:52;;;;;;;5.10;4.13;;;;;;;22.14;28.03;96065.56;6173380;28;109072;-60
2024/01/21 01:49:01;;;;;;;5.20;3.67;;;;;;;22.14;28.01;96065.56;6157784;28;109001;-60
2024/01/21 01:52:08;;;;;;;4.80;3.87;;;;;;;22.15;27.93;96075.13;6156957;28;109182;-61
2024/01/21 01:55:20;;;;;;;5.37;3.90;;;;;;;22.15;28.02;96080.47;6145448;28;108946;-61
2024/01/21 01:58:30;;;;;;;6.40;4.30;;;;;;;22.16;27.94;96075.94;6157846;28;109024;-61
2024/01/21 02:01:43;;;;;;;5.33;4.07;;;;;;;22.14;28.10;96078.09;6157377;28;109291;-60
2024/01/21 02:04:53;;;;;;;5.30;4.50;;;;;;;22.16;28.16;96075.94;6148223;28;109131;-60
2024/01/21 02:08:02;;;;;;;6.80;4.60;;;;;;;22.16;27.58;96071.41;6156832;28;109791;-61
2024/01/21 02:11:11;;;;;;;5.63;4.50;;;;;;;22.16;27.44;96081.25;6134223;28;108745;-60
2024/01/21 02:14:19;;;;;;;4.60;4.20;;;;;;;22.16;27.53;96075.94;6142608;28;109442;-60
2024/01/21 02:17:29;;;;;;;5.77;4.50;;;;;;;22.13;27.96;96071.16;6146103;28;109468;-60
2024/01/21 02:20:37;;;;;;;5.63;4.53;;;;;;;22.16;28.08;96075.94;6157364;28;109179;-59
2024/01/21 02:23:47;;;;;;;6.00;4.87;;;;;;;22.14;27.85;96078.09;6158033;28;109144;-59
2024/01/21 02:26:58;;;;;;;6.57;4.53;;;;;;;22.16;27.36;96079.41;6157226;28;109274;-58
2024/01/21 02:30:07;;;;;;;5.60;5.00;;;;;;;22.13;27.71;96077.28;6152444;28;109310;-58
2024/01/21 02:33:13;;;;;;;6.87;5.10;;;;;;;22.15;27.76;96079.69;6156258;28;109631;-58
2024/01/21 02:36:21;;;;;;;5.73;4.50;;;;;;;22.13;27.46;96079.97;6148605;28;109186;-58
2024/01/21 02:39:30;;;;;;;5.80;4.93;;;;;;;22.11;27.61;96082.91;6147480;28;109726;-58
2024/01/21 02:42:37;;;;;;;5.07;4.53;;;;;;;22.13;27.59;96097.81;6162217;28;109098;-57
2024/01/21 02:45:45;;;;;;;6.07;3.87;;;;;;;22.12;27.34;96102.38;6161070;28;109184;-57
2024/01/21 02:48:55;;;;;;;6.07;4.60;;;;;;;22.11;27.28;96095.44;6161167;28;109138;-57
2024/01/21 02:52:05;;;;;;;4.87;4.03;;;;;;;22.09;27.22;96094.94;6150582;28;108750;-57
2024/01/21 02:55:19;;;;;;;5.53;4.40;;;;;;;22.10;27.43;96104.50;6161457;28;109052;-57
2024/01/21 02:58:28;;;;;;;4.67;4.13;;;;;;;22.08;27.27;96099.47;6160470;28;109073;-58
2024/01/21 03:01:36;;;;;;;4.53;4.13;;;;;;;22.05;27.43;96110.69;6153540;28;109460;-58
2024/01/21 03:04:45;;;;;;;4.80;3.77;;;;;;;22.04;27.44;96105.66;6155843;28;109142;-58
2024/01/21 03:07:49;;;;;;;4.43;4.00;;;;;;;22.06;27.44;96101.63;6159216;28;109092;-58
2024/01/21 03:10:58;;;;;;;4.90;4.17;;;;;;;22.04;27.67;96106.44;6160732;28;109168;-58
2024/01/21 03:14:08;;;;;;;4.73;3.70;;;;;;;22.06;27.02;96108.81;6150301;28;110221;-58
2024/01/21 03:17:20;;;;;;;4.90;4.27;;;;;;;22.07;27.30;96115.75;6163796;28;109162;-58
2024/01/21 03:20:31;;;;;;;4.57;4.07;;;;;;;22.07;27.44;96113.06;6160950;28;110262;-58
2024/01/21 03:23:41;;;;;;;4.97;4.27;;;;;;;22.05;27.23;96121.34;6160030;28;109132;-58
2024/01/21 03:26:51;;;;;;;4.30;3.90;;;;;;;22.05;27.40;96121.34;6149374;28;109315;-58
2024/01/21 03:30:01;;;;;;;4.23;3.70;;;;;;;22.04;27.02;96119.75;6160239;28;109164;-58
2024/01/21 03:33:10;;;;;;;3.90;3.47;;;;;;;22.04;27.41;96119.75;6136513;28;109112;-57
2024/01/21 03:36:16;;;;;;;4.50;3.80;;;;;;;22.04;27.05;96119.75;6147418;28;109152;-58
2024/01/21 03:39:29;;;;;;;4.00;3.40;;;;;;;22.09;27.17;96124.25;6159167;28;111446;-58
2024/01/21 03:42:43;;;;;;;4.40;4.00;;;;;;;22.04;26.85;96133.09;6159749;28;109162;-57
2024/01/21 03:45:53;;;;;;;4.10;3.60;;;;;;;22.03;26.90;96128.84;6153719;28;111309;-57
2024/01/21 03:49:03;;;;;;;4.70;3.80;;;;;;;22.04;27.31;96126.97;6149448;28;109541;-58
2024/01/21 03:52:15;;;;;;;4.23;3.43;;;;;;;22.06;26.86;96130.16;6160106;28;109328;-58
2024/01/21 03:55:27;;;;;;;4.30;3.90;;;;;;;22.08;27.03;96136.00;6158589;28;109241;-58
2024/01/21 03:58:35;;;;;;;4.30;3.70;;;;;;;22.04;26.61;96132.28;6154199;28;109151;-58
2024/01/21 04:01:46;;;;;;;3.27;2.97;;;;;;;22.06;27.08;96130.94;6154255;28;109077;-58
2024/01/21 04:04:57;;;;;;;3.57;3.27;;;;;;;22.04;26.53;96138.44;6158543;28;109287;-57
2024/01/21 04:08:05;;;;;;;3.80;3.30;;;;;;;22.03;26.68;96149.38;6159707;28;109104;-59
2024/01/21 04:11:13;;;;;;;3.40;3.00;;;;;;;22.04;26.35;96142.97;6149121;28;109134;-58
2024/01/21 04:14:25;;;;;;;3.27;2.97;;;;;;;22.04;26.68;96142.97;6163495;28;110391;-58
2024/01/21 04:17:34;;;;;;;5.30;3.73;;;;;;;22.02;26.47;96153.91;6163408;28;109222;-58
2024/01/21 04:20:46;;;;;;;4.40;3.50;;;;;;;22.04;26.88;96153.63;6159482;28;109858;-58
2024/01/21 04:23:55;;;;;;;3.80;3.40;;;;;;;22.03;26.56;96163.50;6149212;28;109071;-57
2024/01/21 04:27:03;;;;;;;3.80;3.17;;;;;;;22.05;26.89;96166.66;6158795;28;108926;-57
2024/01/21 04:30:13;;;;;;;3.50;3.13;;;;;;;22.02;26.53;96166.44;6156953;28;109731;-58
2024/01/21 04:33:21;;;;;;;4.17;3.10;;;;;;;22.00;26.40;96169.34;6152021;28;109124;-58
2024/01/21 04:36:31;;;;;;;3.57;3.23;;;;;;;22.07;26.40;96172.50;6156837;28;109312;-58
2024/01/21 04:39:41;;;;;;;4.97;3.50;;;;;;;22.10;26.41;96173.81;6158475;28;109192;-59
2024/01/21 04:42:50;;;;;;;3.20;2.90;;;;;;;22.14;26.28;96176.72;6156244;28;109182;-59
2024/01/21 04:46:01;;;;;;;4.00;3.03;;;;;;;22.16;25.84;96182.56;6146770;28;109216;-59
2024/01/21 04:49:08;;;;;;;4.63;3.30;;;;;;;22.14;26.32;96188.19;6156654;28;109434;-59
2024/01/21 04:52:15;;;;;;;3.00;2.63;;;;;;;22.15;25.81;96194.31;6157643;28;109386;-59
2024/01/21 04:55:23;;;;;;;3.77;3.37;;;;;;;22.15;26.33;96188.97;6157794;28;109105;-58
2024/01/21 04:58:33;;;;;;;3.90;3.20;;;;;;;22.15;25.76;96189.78;6146628;28;109088;-58
2024/01/21 05:01:42;;;;;;;3.73;3.07;;;;;;;22.17;26.32;96184.16;6157544;28;109870;-58
2024/01/21 05:04:50;;;;;;;3.00;2.70;;;;;;;22.16;25.95;96193.25;6158324;28;110597;-58
2024/01/21 05:07:58;;;;;;;4.60;3.20;;;;;;;22.17;25.80;96200.94;6146804;28;109129;-58
2024/01/21 05:11:08;;;;;;;2.90;2.60;;;;;;;22.17;26.31;96200.16;6155658;28;110271;-59
2024/01/21 05:14:19;;;;;;;4.00;3.10;;;;;;;22.17;26.10;96200.94;6157203;28;109202;-59
2024/01/21 05:17:28;;;;;;;3.87;3.27;;;;;;;22.18;25.62;96207.09;6154857;28;109296;-59
2024/01/21 05:20:37;;;;;;;3.10;2.80;;;;;;;22.16;25.86;96211.91;6147433;28;109232;-59
2024/01/21 05:23:45;;;;;;;3.30;2.93;;;;;;;22.16;25.60;96212.69;6157081;28;109232;-59
2024/01/21 05:26:48;;;;;;;3.50;2.60;;;;;;;22.18;25.41;96212.41;6156558;28;110466;-59
2024/01/21 05:29:52;;;;;;;4.10;3.37;;;;;;;22.18;25.66;96215.91;6150927;28;109281;-59
2024/01/21 05:33:01;;;;;;;7.63;2.80;;;;;;;22.18;25.53;96221.25;6150004;28;109070;-58
2024/01/21 05:36:09;;;;;;;3.23;2.40;;;;;;;22.17;25.56;96234.81;6157086;28;109299;-59
2024/01/21 05:39:19;;;;;;;3.07;2.77;;;;;;;22.18;25.96;96239.06;6155747;28;109167;-59
2024/01/21 05:42:30;;;;;;;3.40;2.40;;;;;;;22.18;25.60;96237.22;6145043;28;109558;-59
2024/01/21 05:45:40;;;;;;;2.90;2.40;;;;;;;22.20;26.03;96244.97;6156821;28;109518;-58
2024/01/21 05:48:49;;;;;;;2.50;2.20;;;;;;;22.18;25.95;96241.75;6154531;28;110259;-58
2024/01/21 05:51:55;;;;;;;2.77;2.10;;;;;;;22.18;25.66;96252.41;6157215;28;109153;-59
2024/01/21 05:55:06;;;;;;;3.43;2.17;;;;;;;22.17;25.84;96250.81;6147039;28;109624;-58
2024/01/21 05:58:15;;;;;;;3.33;2.50;;;;;;;22.17;25.38;96253.47;6157269;28;110399;-58
2024/01/21 06:01:20;;;;;;;2.93;2.00;;;;;;;22.17;25.30;96256.16;6155694;28;109204;-58
2024/01/21 06:04:30;;;;;;;2.30;2.10;;;;;;;22.16;25.35;96262.56;6148646;28;110741;-60
2024/01/21 06:07:36;;;;;;;2.60;2.40;;;;;;;22.17;25.53;96267.59;6153544;28;110406;-58
2024/01/21 06:10:46;;;;;;;3.00;2.20;;;;;;;22.15;25.22;96269.75;6156426;28;109320;-58
2024/01/21 06:13:52;;;;;;;3.70;1.97;;;;;;;22.17;25.24;96266.81;6156462;28;111057;-59
2024/01/21 06:16:59;;;;;;;2.50;2.20;;;;;;;22.17;25.55;96259.59;6149255;28;109361;-59
2024/01/21 06:20:09;;;;;;;2.60;2.37;;;;;;;22.17;25.08;96272.94;6160321;28;109086;-59
2024/01/21 06:23:17;;;;;;;1.93;1.60;;;;;;;22.16;25.60;96273.22;6161321;28;109100;-59
2024/01/21 06:26:27;;;;;;;2.27;2.07;;;;;;;22.17;25.02;96274.81;6160729;28;109409;-59
2024/01/21 06:29:32;;;;;;;2.33;1.80;;;;;;;22.17;25.32;96274.81;6147946;28;112156;-59
2024/01/21 06:32:39;;;;;;;2.53;2.00;;;;;;;22.18;25.17;96274.56;6160618;28;109187;-59
2024/01/21 06:36:00;;;;;;;3.00;2.23;;;;;;;22.19;25.48;96278.03;6159898;28;109988;-59
2024/01/21 06:39:07;;;;;;;2.63;1.87;;;;;;;22.16;25.32;96274.00;6152219;28;110452;-59
2024/01/21 06:42:14;;;;;;;2.83;2.03;;;;;;;22.19;25.46;96280.69;6158446;28;109353;-59
2024/01/21 06:45:18;;;;;;;3.40;2.27;;;;;;;22.18;25.61;96279.91;6162789;28;109148;-59
2024/01/21 06:48:26;;;;;;;2.70;2.27;;;;;;;22.16;24.96;96283.88;6160519;28;109070;-60
2024/01/21 06:51:43;;;;;;;2.97;2.03;;;;;;;22.18;25.00;96290.56;6148593;28;111525;-59
2024/01/21 06:54:52;;;;;;;2.30;2.10;;;;;;;22.19;25.45;96294.03;6161564;28;111217;-58
2024/01/21 06:57:59;;;;;;;2.87;2.30;;;;;;;22.38;25.29;96306.44;6160640;28;109409;-59
2024/01/21 07:01:07;;;;;;;2.30;2.00;;;;;;;22.84;24.53;96314.13;6160809;28;109166;-60
2024/01/21 07:04:18;;;;;;;2.50;2.30;;;;;;;23.15;24.44;96309.31;6152721;28;109326;-59
2024/01/21 07:07:32;;;;;;;3.20;2.47;;;;;;;23.34;24.31;96316.66;6160607;28;110013;-60
2024/01/21 07:10:41;;;;;;;2.50;2.30;;;;;;;23.35;23.87;96313.69;6160262;28;109873;-58
2024/01/21 07:13:48;;;;;;;15.20;14.00;;;;;;;22.92;25.24;96315.41;6150226;28;109291;-63
2024/01/21 07:16:54;;;;;;;15.73;14.53;;;;;;;22.81;25.62;96316.56;6160879;28;109303;-62
2024/01/21 07:20:06;;;;;;;11.40;10.50;;;;;;;22.72;25.88;96319.03;6162693;28;109638;-62
2024/01/21 07:23:12;;;;;;;9.50;8.70;;;;;;;22.69;25.74;96335.63;6159033;28;109064;-62
2024/01/21 07:26:23;;;;;;;8.30;7.70;;;;;;;22.65;25.97;96331.88;6150446;28;109543;-62
2024/01/21 07:29:32;;;;;;;11.23;7.60;;;;;;;22.42;25.71;96328.00;6172418;28;109281;-63
2024/01/21 07:32:42;;;;;;;9.97;7.40;;;;;;;22.26;26.04;96342.50;6163482;28;109223;-65
2024/01/21 07:35:50;;;;;;;7.50;6.70;;;;;;;22.14;26.74;96340.16;6155320;28;109261;-62
2024/01/21 07:38:56;;;;;;;6.63;5.93;;;;;;;22.08;26.34;96350.03;6138520;28;110758;-62
2024/01/21 07:42:03;;;;;;;7.07;5.57;;;;;;;22.04;26.93;96350.88;6158831;28;109390;-63
2024/01/21 07:45:13;;;;;;;7.83;5.10;;;;;;;22.04;26.75;96349.00;6157958;28;109165;-65
2024/01/21 07:48:23;;;;;;;12.23;5.40;;;;;;;21.85;26.66;96341.88;6150581;28;109234;-62
2024/01/21 07:51:28;;;;;;;15.13;5.90;;;;;;;21.94;26.67;96343.69;6167286;28;109068;-61
2024/01/21 07:54:35;;;;;;;7.00;5.10;;;;;;;21.97;26.45;96345.81;6163908;28;109181;-62
2024/01/21 07:57:43;;;;;;;5.47;4.27;;;;;;;22.00;26.91;96353.25;6159516;28;110287;-62
2024/01/21 08:00:50;;;;;;;4.50;3.50;;;;;;;22.01;26.93;96348.72;6146834;28;109270;-62
2024/01/21 08:04:00;;;;;;;4.07;3.67;;;;;;;21.98;26.70;96355.41;6157266;28;109122;-62
2024/01/21 08:07:08;;;;;;;3.63;3.23;;;;;;;22.08;26.85;96358.03;6151408;28;109235;-64
2024/01/21 08:10:21;;;;;;;8.47;3.20;;;;;;;22.15;27.12;96352.41;6152113;28;109119;-61
2024/01/21 08:13:28;;;;;;;6.30;3.73;;;;;;;22.06;27.20;96356.72;6156963;28;109451;-62
2024/01/21 08:16:32;;;;;;;5.53;3.27;;;;;;;22.05;27.09;96355.94;6153989;28;109604;-57
2024/01/21 08:19:38;;;;;;;3.67;3.13;;;;;;;22.07;27.79;96364.44;6158863;28;110788;-58
2024/01/21 08:22:47;;;;;;;5.50;3.27;;;;;;;22.07;27.21;96366.31;6151516;28;111965;-57
2024/01/21 08:25:57;;;;;;;4.13;3.17;;;;;;;22.06;27.40;96367.38;6159105;28;109126;-57
2024/01/21 08:29:03;;;;;;;3.87;3.27;;;;;;;22.04;27.54;96372.19;6060909;28;109145;-56
2024/01/21 08:32:07;;;;;;;5.13;2.80;;;;;;;22.05;27.97;96365.78;6144697;28;109159;-57
2024/01/21 08:35:11;;;;;;;3.13;2.80;;;;;;;22.60;27.23;96371.94;6145786;28;109203;-58
2024/01/21 08:38:14;;;;;;;5.53;2.87;;;;;;;22.89;26.92;96375.50;6156685;28;109290;-58
2024/01/21 08:41:19;;;;;;;5.30;3.33;;;;;;;23.05;26.44;96380.72;6158962;28;109094;-57
2024/01/21 08:44:22;;;;;;;4.47;3.50;;;;;;;23.09;26.33;96387.91;6151280;28;109155;-57
2024/01/21 08:47:26;;;;;;;4.43;3.60;;;;;;;23.14;26.87;96387.84;6160377;28;109394;-58
2024/01/21 08:50:29;;;;;;;6.80;3.50;;;;;;;23.15;26.85;96384.09;6155026;28;109273;-56
2024/01/21 08:53:32;;;;;;;6.80;4.50;;;;;;;23.14;26.56;96381.72;6156040;28;109338;-56
2024/01/21 08:56:37;;;;;;;4.43;4.03;;;;;;;23.16;26.68;96390.22;6149242;28;109061;-57
2024/01/21 08:59:51;;;;;;;4.70;4.10;;;;;;;23.20;26.66;96392.09;6250746;27;108748;-59
2024/01/21 09:02:54;;;;;;;5.10;4.60;;;;;;;23.18;26.84;96394.22;6254272;27;110667;-58
2024/01/21 09:05:57;;;;;;;5.13;4.40;;;;;;;23.19;26.82;96387.03;6256939;27;109947;-58
2024/01/21 09:09:01;;;;;;;4.63;4.23;;;;;;;23.20;26.80;96392.09;6245339;27;109885;-58
2024/01/21 09:12:04;;;;;;;5.30;4.70;;;;;;;23.20;26.93;96389.41;6248543;27;109086;-57
2024/01/21 09:15:12;;;;;;;6.00;5.20;;;;;;;23.16;26.87;96388.34;6247844;27;110659;-58
2024/01/21 09:18:15;;;;;;;5.70;5.00;;;;;;;23.17;27.58;96395.28;6233936;27;108808;-58
2024/01/21 09:21:19;;;;;;;5.63;5.13;;;;;;;23.19;27.05;96390.50;6246331;27;110159;-58
2024/01/21 09:24:34;;;;;;;6.70;5.57;;;;;;;23.17;27.52;96379.28;6243016;27;108950;-58
2024/01/21 09:27:38;;;;;;;5.87;5.37;;;;;;;23.19;27.18;96385.16;6242102;27;112653;-60
2024/01/21 09:30:43;;;;;;;8.80;5.07;;;;;;;23.18;27.02;96383.53;6227622;27;109540;-60
2024/01/21 09:33:46;;;;;;;6.37;5.77;;;;;;;23.19;27.26;96379.81;6232635;27;109120;-59
2024/01/21 09:36:53;;;;;;;7.37;6.67;;;;;;;22.85;28.23;96376.31;6253213;27;109482;-60
2024/01/21 09:40:00;;;;;;;9.73;8.83;;;;;;;22.38;27.92;96378.44;6250589;27;109239;-60
2024/01/21 09:43:08;;;;;;;13.07;11.87;;;;;;;22.20;26.81;96370.28;6246196;27;109610;-59
2024/01/21 09:46:19;;;;;;;14.83;13.27;;;;;;;21.68;25.97;96377.59;6239752;27;108956;-60
2024/01/21 09:49:27;;;;;;;15.80;14.40;;;;;;;21.55;25.99;96380.03;6233462;27;109207;-59
2024/01/21 09:52:32;;;;;;;18.70;15.93;;;;;;;21.06;24.31;96372.59;6244934;27;109101;-59
2024/01/21 09:55:37;;;;;;;17.90;16.20;;;;;;;20.96;24.40;96378.69;6239532;27;109938;-60
2024/01/21 09:58:45;;;;;;;18.03;16.27;;;;;;;20.81;24.18;96352.84;6247599;27;109050;-61
2024/01/21 10:01:53;;;;;;;17.23;15.43;;;;;;;21.18;24.56;96362.50;6250151;27;109016;-60
2024/01/21 10:05:00;;;;;;;15.70;14.40;;;;;;;21.40;24.55;96356.88;6241153;27;108962;-61
2024/01/21 10:08:09;;;;;;;15.87;14.23;;;;;;;21.58;24.96;96358.16;6252541;27;109288;-61
2024/01/21 10:11:16;;;;;;;14.90;13.30;;;;;;;21.67;25.67;96354.66;6235602;27;109017;-60
2024/01/21 10:14:21;;;;;;;14.80;13.27;;;;;;;21.61;25.89;96365.63;6228274;28;109556;-60
2024/01/21 10:17:30;;;;;;;13.93;12.60;;;;;;;21.68;26.01;96350.16;6214206;28;110136;-61
2024/01/21 10:20:39;;;;;;;12.97;11.53;;;;;;;21.73;26.45;96350.16;6226375;27;109081;-62
2024/01/21 10:23:48;;;;;;;13.70;12.40;;;;;;;21.76;26.71;96346.94;6216004;28;110028;-60
2024/01/21 10:26:53;;;;;;;12.50;11.23;;;;;;;21.77;26.76;96351.19;6225290;28;109204;-60
2024/01/21 10:30:01;;;;;;;14.40;13.00;;;;;;;21.63;26.82;96350.16;6225065;27;109368;-61
2024/01/21 10:33:10;;;;;;;12.90;11.60;;;;;;;21.67;27.56;96343.22;6236192;27;109851;-60
2024/01/21 10:36:21;;;;;;;15.40;12.50;;;;;;;21.85;28.09;96348.00;6236387;27;109137;-56
2024/01/21 10:39:31;;;;;;;12.97;11.57;;;;;;;21.95;27.74;96347.97;6225031;27;110940;-58
2024/01/21 10:42:37;;;;;;;12.33;11.13;;;;;;;22.01;27.49;96338.06;6226907;28;112354;-56
2024/01/21 10:45:45;;;;;;;10.90;10.00;;;;;;;22.20;27.47;96338.28;6214179;28;109178;-58
2024/01/21 10:48:57;;;;;;;12.87;11.63;;;;;;;22.22;26.21;96334.25;6234376;28;109071;-57
2024/01/21 10:52:02;;;;;;;13.93;12.07;;;;;;;22.28;26.49;96327.81;6227414;27;109041;-57
2024/01/21 10:55:08;;;;;;;15.83;11.47;;;;;;;22.41;25.91;96337.88;6236813;27;109087;-57
2024/01/21 10:58:14;;;;;;;12.20;11.10;;;;;;;22.49;26.01;96331.16;6216515;27;109113;-57
2024/01/21 11:01:24;;;;;;;11.57;10.47;;;;;;;22.55;25.83;96321.25;6220973;27;109162;-57
2024/01/21 11:04:31;;;;;;;12.60;11.30;;;;;;;22.57;26.09;96324.47;6236810;27;109082;-57
2024/01/21 11:07:40;;;;;;;11.70;10.67;;;;;;;22.57;26.12;96324.47;6224658;28;109160;-57
2024/01/21 11:10:48;;;;;;;12.20;11.10;;;;;;;22.59;25.66;96322.34;6214915;28;109771;-58
2024/01/21 11:13:58;;;;;;;11.63;10.53;;;;;;;22.58;25.77;96316.19;6215327;28;108975;-57
2024/01/21 11:17:04;;;;;;;11.20;10.07;;;;;;;22.59;26.01;96323.13;6224750;27;108975;-59
2024/01/21 11:20:26;;;;;;;11.47;10.33;;;;;;;22.57;25.88;96324.47;6234488;28;108942;-58
2024/01/21 11:23:33;;;;;;;11.30;10.20;;;;;;;22.59;25.85;96333.00;6219732;28;109397;-57
2024/01/21 11:26:44;;;;;;;11.17;10.07;;;;;;;22.52;26.43;96319.94;6206767;28;109317;-57
2024/01/21 11:29:54;;;;;;;10.57;9.67;;;;;;;22.62;26.17;96330.56;6217484;28;109381;-59
2024/01/21 11:33:04;;;;;;;11.70;10.60;;;;;;;22.67;25.89;96324.41;6219115;28;109198;-58
2024/01/21 11:36:15;;;;;;;11.30;10.07;;;;;;;22.55;26.30;96327.41;6222931;27;109794;-57
2024/01/21 11:39:24;;;;;;;11.30;10.23;;;;;;;22.53;26.33;96324.22;6225333;28;110146;-57
2024/01/21 11:42:34;;;;;;;11.63;10.63;;;;;;;22.49;26.33;96317.81;6226671;28;108964;-57
2024/01/21 11:45:43;;;;;;;10.67;9.67;;;;;;;22.42;25.99;96318.13;6216521;27;109015;-59
2024/01/21 11:48:48;;;;;;;11.03;10.00;;;;;;;22.44;26.09;96317.06;6204022;28;108948;-59
2024/01/21 11:51:55;;;;;;;10.00;9.00;;;;;;;22.41;26.49;96313.06;6218664;28;109301;-59
2024/01/21 11:55:02;;;;;;;10.50;9.60;;;;;;;22.41;26.47;96313.06;6225070;28;109274;-59
2024/01/21 11:58:10;;;;;;;10.40;9.47;;;;;;;22.41;26.55;96300.53;6215522;28;110350;-59
2024/01/21 12:01:16;;;;;;;10.43;9.47;;;;;;;22.36;26.56;96302.44;6222493;27;109023;-60
2024/01/21 12:04:24;;;;;;;10.07;9.17;;;;;;;22.36;26.40;96302.44;6236121;27;112317;-60
2024/01/21 12:07:34;;;;;;;10.10;9.20;;;;;;;22.36;26.04;96300.59;6231738;27;108962;-59
2024/01/21 12:10:41;;;;;;;9.20;8.40;;;;;;;22.36;26.30;96297.91;6207702;28;109588;-60
2024/01/21 12:13:51;;;;;;;9.50;8.60;;;;;;;22.34;26.32;96302.69;6225792;28;108818;-59
2024/01/21 12:16:56;;;;;;;8.80;8.00;;;;;;;22.30;26.17;96303.53;6218961;28;109098;-59
2024/01/21 12:20:04;;;;;;;9.63;8.70;;;;;;;22.33;25.92;96305.66;6225592;27;109329;-60
2024/01/21 12:23:20;;;;;;;8.67;7.87;;;;;;;22.35;25.95;96312.31;6204877;28;111439;-60
2024/01/21 12:26:24;;;;;;;10.97;9.07;;;;;;;22.32;26.48;96314.72;6220800;28;109191;-59
2024/01/21 12:29:39;;;;;;;9.50;8.40;;;;;;;22.51;26.63;96321.00;6218708;28;109143;-59
2024/01/21 12:32:48;;;;;;;7.97;7.20;;;;;;;22.58;26.56;96323.41;6212767;27;110619;-60
2024/01/21 12:36:02;;;;;;;9.60;8.70;;;;;;;22.41;27.46;96323.75;6223671;28;108931;-60
2024/01/21 12:39:12;;;;;;;9.50;8.60;;;;;;;22.53;26.82;96324.22;6212118;27;108949;-60
2024/01/21 12:42:21;;;;;;;9.53;8.63;;;;;;;22.61;26.80;96322.84;6230643;28;109073;-61
2024/01/21 12:45:27;;;;;;;9.63;8.83;;;;;;;22.51;26.74;96326.34;6202827;28;109067;-59
2024/01/21 12:48:33;;;;;;;9.20;8.30;;;;;;;22.60;27.31;96322.06;6231419;28;109441;-61
2024/01/21 12:51:42;;;;;;;8.00;7.20;;;;;;;22.65;26.82;96323.88;6227266;27;108973;-60
2024/01/21 12:54:52;;;;;;;9.00;8.20;;;;;;;22.67;27.20;96314.53;6216964;27;109937;-61
2024/01/21 12:57:58;;;;;;;8.10;7.30;;;;;;;22.75;27.29;96323.03;6217126;28;110971;-61
2024/01/21 13:01:02;;;;;;;8.10;7.40;;;;;;;22.78;27.63;96328.59;6220736;28;108980;-60
2024/01/21 13:04:10;;;;;;;8.70;7.90;;;;;;;22.80;27.07;96330.97;6225561;27;108961;-59
2024/01/21 13:07:15;;;;;;;8.33;7.60;;;;;;;22.79;27.56;96324.06;6215260;27;109030;-60
2024/01/21 13:10:21;;;;;;;7.37;6.67;;;;;;;22.83;27.52;96327.75;6220099;27;110382;-60
2024/01/21 13:13:27;;;;;;;7.50;6.80;;;;;;;22.86;27.13;96327.22;6216342;28;109057;-60
2024/01/21 13:16:34;;;;;;;7.87;7.07;;;;;;;22.86;27.21;96325.34;6219764;28;110468;-60
2024/01/21 13:19:41;;;;;;;8.00;7.07;;;;;;;22.85;27.54;96336.28;6200985;27;109974;-60
2024/01/21 13:22:50;;;;;;;7.20;6.50;;;;;;;22.86;27.70;96340.56;6230186;28;109215;-60
2024/01/21 13:25:59;;;;;;;8.33;7.53;;;;;;;22.87;27.62;96334.16;6218048;27;109308;-60
2024/01/21 13:32:23;;;;;;;10.80;6.63;;;;;;;22.80;27.69;96349.66;6197056;27;109169;-60
2024/01/21 13:35:30;;;;;;;7.33;6.63;;;;;;;22.80;27.52;96347.78;6232782;27;109381;-63
2024/01/21 13:38:39;;;;;;;7.10;6.40;;;;;;;22.86;27.77;96353.91;6233525;28;109091;-60
2024/01/21 13:41:51;;;;;;;7.47;6.77;;;;;;;22.87;28.00;96353.63;6203018;27;109778;-60
2024/01/21 13:45:00;;;;;;;6.53;5.93;;;;;;;22.86;27.59;96360.03;6211631;28;109135;-60
2024/01/21 13:48:09;;;;;;;7.37;6.73;;;;;;;22.86;28.07;96354.72;6235545;28;108932;-60
2024/01/21 13:51:16;;;;;;;7.27;6.30;;;;;;;22.88;28.02;96357.09;6234197;27;108957;-60
2024/01/21 13:54:27;;;;;;;7.03;6.23;;;;;;;22.86;28.11;96359.25;6204944;28;109095;-60
2024/01/21 13:57:40;;;;;;;6.60;6.00;;;;;;;22.88;27.77;96359.75;6223650;27;110216;-60
2024/01/21 14:00:46;;;;;;;6.87;6.20;;;;;;;22.86;28.16;96361.91;6215063;28;110382;-60
2024/01/21 14:03:52;;;;;;;6.70;6.10;;;;;;;22.88;28.01;96367.78;6202759;28;110268;-60
2024/01/21 14:07:02;;;;;;;7.03;6.33;;;;;;;22.87;27.69;96364.31;6222798;28;108967;-59
2024/01/21 14:10:14;;;;;;;6.67;6.07;;;;;;;22.86;27.70;96372.59;6237869;27;109119;-59
2024/01/21 14:13:31;;;;;;;6.27;5.73;;;;;;;22.87;28.33;96374.19;6232291;27;109768;-59
2024/01/21 14:16:41;;;;;;;6.40;5.80;;;;;;;22.88;27.69;96373.09;6211709;27;108930;-59
2024/01/21 14:19:51;;;;;;;6.83;6.17;;;;;;;22.89;27.83;96375.50;6226850;27;109208;-59
2024/01/21 14:23:01;;;;;;;6.37;5.77;;;;;;;22.87;27.94;96382.19;6230031;28;109152;-59
2024/01/21 14:26:11;;;;;;;5.97;5.47;;;;;;;22.87;27.93;96384.88;6222649;27;108922;-59
2024/01/21 14:29:22;;;;;;;6.37;5.87;;;;;;;22.91;28.23;96385.91;6217592;27;109713;-59
2024/01/21 14:32:31;;;;;;;6.50;5.90;;;;;;;22.83;28.28;96389.94;6226215;28;109269;-59
2024/01/21 14:35:38;;;;;;;7.27;6.30;;;;;;;22.51;28.70;96387.69;6227931;28;110432;-58